sensor_id;sensor_type;location;lat;lon;timestamp;P1;durP1;ratioP1;P2;durP2;ratioP2
2049;SDS011;8478;49.208;8.806;2023-05-10T00:01:55;4.53;;;4.23;;
2049;SDS011;8478;49.208;8.806;2023-05-10T00:04:21;4.20;;;4.00;;
2049;SDS011;8478;49.208;8.806;2023-05-10T00:06:47;4.47;;;4.27;;
2049;SDS011;8478;49.208;8.806;2023-05-10T00:09:13;4.30;;;4.10;;
2049;SDS011;8478;49.208;8.806;2023-05-10T00:11:39;3.97;;;3.77;;
2049;SDS011;8478;49.208;8.806;2023-05-10T00:14:05;4.20;;;4.00;;
2049;SDS011;8478;49.208;8.806;2023-05-10T00:16:30;4.17;;;3.97;;
2049;SDS011;8478;49.208;8.806;2023-05-10T00:18:56;3.80;;;3.70;;
2049;SDS011;8478;49.208;8.806;2023-05-10T00:21:21;4.20;;;4.10;;
2049;SDS011;8478;49.208;8.806;2023-05-10T00:23:47;4.47;;;4.17;;
2049;SDS011;8478;49.208;8.806;2023-05-10T00:26:13;3.90;;;3.70;;
2049;SDS011;8478;49.208;8.806;2023-05-10T00:28:38;4.03;;;3.83;;
2049;SDS011;8478;49.208;8.806;2023-05-10T00:31:04;4.40;;;4.20;;
2049;SDS011;8478;49.208;8.806;2023-05-10T00:33:30;4.17;;;3.97;;
2049;SDS011;8478;49.208;8.806;2023-05-10T00:35:55;4.20;;;4.00;;
2049;SDS011;8478;49.208;8.806;2023-05-10T00:38:21;4.50;;;4.30;;
2049;SDS011;8478;49.208;8.806;2023-05-10T00:40:47;4.50;;;4.20;;
2049;SDS011;8478;49.208;8.806;2023-05-10T00:43:12;4.20;;;4.00;;
2049;SDS011;8478;49.208;8.806;2023-05-10T00:45:38;4.03;;;3.83;;
2049;SDS011;8478;49.208;8.806;2023-05-10T00:48:05;3.63;;;3.53;;
2049;SDS011;8478;49.208;8.806;2023-05-10T00:50:31;4.30;;;4.10;;
2049;SDS011;8478;49.208;8.806;2023-05-10T00:52:58;4.50;;;4.23;;
2049;SDS011;8478;49.208;8.806;2023-05-10T00:55:25;4.50;;;4.30;;
2049;SDS011;8478;49.208;8.806;2023-05-10T00:57:52;3.97;;;3.77;;
2049;SDS011;8478;49.208;8.806;2023-05-10T01:00:18;4.37;;;4.17;;
2049;SDS011;8478;49.208;8.806;2023-05-10T01:02:44;4.20;;;4.00;;
2049;SDS011;8478;49.208;8.806;2023-05-10T01:05:11;3.97;;;3.83;;
2049;SDS011;8478;49.208;8.806;2023-05-10T01:07:37;4.57;;;4.37;;
2049;SDS011;8478;49.208;8.806;2023-05-10T01:10:03;3.97;;;3.83;;
2049;SDS011;8478;49.208;8.806;2023-05-10T01:12:30;4.80;;;4.60;;
2049;SDS011;8478;49.208;8.806;2023-05-10T01:14:56;4.40;;;4.20;;
2049;SDS011;8478;49.208;8.806;2023-05-10T01:17:23;4.30;;;4.10;;
2049;SDS011;8478;49.208;8.806;2023-05-10T01:19:49;4.60;;;4.40;;
2049;SDS011;8478;49.208;8.806;2023-05-10T01:33:26;5.10;;;4.80;;
2049;SDS011;8478;49.208;8.806;2023-05-10T01:36:19;4.53;;;4.33;;
2049;SDS011;8478;49.208;8.806;2023-05-10T01:39:29;4.07;;;3.97;;
2049;SDS011;8478;49.208;8.806;2023-05-10T01:42:11;5.40;;;5.00;;
2049;SDS011;8478;49.208;8.806;2023-05-10T01:44:43;5.10;;;4.80;;
2049;SDS011;8478;49.208;8.806;2023-05-10T01:49:52;4.37;;;4.17;;
2049;SDS011;8478;49.208;8.806;2023-05-10T01:52:22;4.40;;;4.20;;
2049;SDS011;8478;49.208;8.806;2023-05-10T01:54:54;4.47;;;4.23;;
2049;SDS011;8478;49.208;8.806;2023-05-10T01:57:25;5.20;;;5.00;;
2049;SDS011;8478;49.208;8.806;2023-05-10T01:59:52;4.83;;;4.50;;
2049;SDS011;8478;49.208;8.806;2023-05-10T02:02:20;5.40;;;5.20;;
2049;SDS011;8478;49.208;8.806;2023-05-10T02:04:47;5.13;;;4.83;;
2049;SDS011;8478;49.208;8.806;2023-05-10T02:07:15;4.87;;;4.67;;
2049;SDS011;8478;49.208;8.806;2023-05-10T02:09:42;5.10;;;4.80;;
2049;SDS011;8478;49.208;8.806;2023-05-10T02:12:12;5.10;;;4.90;;
2049;SDS011;8478;49.208;8.806;2023-05-10T02:14:38;5.30;;;5.10;;
2049;SDS011;8478;49.208;8.806;2023-05-10T02:17:06;5.10;;;4.90;;
2049;SDS011;8478;49.208;8.806;2023-05-10T02:19:34;4.53;;;4.33;;
2049;SDS011;8478;49.208;8.806;2023-05-10T02:22:03;5.00;;;4.80;;
2049;SDS011;8478;49.208;8.806;2023-05-10T02:24:30;4.50;;;4.30;;
2049;SDS011;8478;49.208;8.806;2023-05-10T02:26:58;4.97;;;4.77;;
2049;SDS011;8478;49.208;8.806;2023-05-10T02:29:27;5.17;;;4.97;;
2049;SDS011;8478;49.208;8.806;2023-05-10T02:31:54;5.43;;;5.23;;
2049;SDS011;8478;49.208;8.806;2023-05-10T02:34:22;4.67;;;4.37;;
2049;SDS011;8478;49.208;8.806;2023-05-10T02:36:50;5.10;;;4.70;;
2049;SDS011;8478;49.208;8.806;2023-05-10T02:39:17;4.50;;;4.27;;
2049;SDS011;8478;49.208;8.806;2023-05-10T02:41:45;4.60;;;4.33;;
2049;SDS011;8478;49.208;8.806;2023-05-10T02:44:14;4.70;;;4.50;;
2049;SDS011;8478;49.208;8.806;2023-05-10T02:46:42;4.73;;;4.53;;
2049;SDS011;8478;49.208;8.806;2023-05-10T02:49:08;4.60;;;4.40;;
2049;SDS011;8478;49.208;8.806;2023-05-10T02:51:35;5.10;;;4.90;;
2049;SDS011;8478;49.208;8.806;2023-05-10T02:54:11;5.30;;;5.00;;
2049;SDS011;8478;49.208;8.806;2023-05-10T02:56:46;4.90;;;4.70;;
2049;SDS011;8478;49.208;8.806;2023-05-10T02:59:15;7.57;;;6.27;;
2049;SDS011;8478;49.208;8.806;2023-05-10T03:01:41;8.23;;;6.03;;
2049;SDS011;8478;49.208;8.806;2023-05-10T03:04:07;15.77;;;6.63;;
2049;SDS011;8478;49.208;8.806;2023-05-10T03:06:32;5.70;;;5.20;;
2049;SDS011;8478;49.208;8.806;2023-05-10T03:08:58;6.13;;;5.40;;
2049;SDS011;8478;49.208;8.806;2023-05-10T03:11:43;7.03;;;5.73;;
2049;SDS011;8478;49.208;8.806;2023-05-10T03:17:00;6.00;;;5.60;;
2049;SDS011;8478;49.208;8.806;2023-05-10T03:19:33;6.60;;;6.30;;
2049;SDS011;8478;49.208;8.806;2023-05-10T03:22:18;6.67;;;6.27;;
2049;SDS011;8478;49.208;8.806;2023-05-10T03:24:55;6.40;;;6.10;;
2049;SDS011;8478;49.208;8.806;2023-05-10T03:27:25;6.17;;;5.83;;
2049;SDS011;8478;49.208;8.806;2023-05-10T03:29:52;6.07;;;5.67;;
2049;SDS011;8478;49.208;8.806;2023-05-10T03:32:19;6.50;;;6.20;;
2049;SDS011;8478;49.208;8.806;2023-05-10T03:34:45;5.93;;;5.63;;
2049;SDS011;8478;49.208;8.806;2023-05-10T03:37:11;6.10;;;5.80;;
2049;SDS011;8478;49.208;8.806;2023-05-10T03:39:36;5.70;;;5.40;;
2049;SDS011;8478;49.208;8.806;2023-05-10T03:42:02;5.80;;;5.40;;
2049;SDS011;8478;49.208;8.806;2023-05-10T03:44:28;5.80;;;5.40;;
2049;SDS011;8478;49.208;8.806;2023-05-10T03:46:54;6.47;;;6.10;;
2049;SDS011;8478;49.208;8.806;2023-05-10T03:49:21;5.90;;;5.60;;
2049;SDS011;8478;49.208;8.806;2023-05-10T03:51:47;5.97;;;5.67;;
2049;SDS011;8478;49.208;8.806;2023-05-10T03:54:13;5.70;;;5.40;;
2049;SDS011;8478;49.208;8.806;2023-05-10T03:56:39;5.80;;;5.50;;
2049;SDS011;8478;49.208;8.806;2023-05-10T03:59:04;4.93;;;4.73;;
2049;SDS011;8478;49.208;8.806;2023-05-10T04:01:32;5.83;;;5.63;;
2049;SDS011;8478;49.208;8.806;2023-05-10T04:03:59;6.27;;;5.87;;
2049;SDS011;8478;49.208;8.806;2023-05-10T04:06:24;5.70;;;5.30;;
2049;SDS011;8478;49.208;8.806;2023-05-10T04:08:50;5.60;;;5.30;;
2049;SDS011;8478;49.208;8.806;2023-05-10T04:11:15;5.40;;;5.20;;
2049;SDS011;8478;49.208;8.806;2023-05-10T04:13:41;6.27;;;5.80;;
2049;SDS011;8478;49.208;8.806;2023-05-10T04:16:08;5.80;;;5.60;;
2049;SDS011;8478;49.208;8.806;2023-05-10T04:18:33;6.20;;;5.90;;
2049;SDS011;8478;49.208;8.806;2023-05-10T04:20:59;5.90;;;5.47;;
2049;SDS011;8478;49.208;8.806;2023-05-10T04:23:26;5.10;;;4.90;;
2049;SDS011;8478;49.208;8.806;2023-05-10T04:25:52;5.27;;;5.07;;
2049;SDS011;8478;49.208;8.806;2023-05-10T04:28:17;5.70;;;5.20;;
2049;SDS011;8478;49.208;8.806;2023-05-10T04:30:43;5.77;;;5.50;;
2049;SDS011;8478;49.208;8.806;2023-05-10T04:33:09;5.67;;;5.30;;
2049;SDS011;8478;49.208;8.806;2023-05-10T04:35:35;5.57;;;5.27;;
2049;SDS011;8478;49.208;8.806;2023-05-10T04:38:00;6.03;;;5.70;;
2049;SDS011;8478;49.208;8.806;2023-05-10T04:40:26;5.27;;;4.97;;
2049;SDS011;8478;49.208;8.806;2023-05-10T04:42:52;5.63;;;5.33;;
2049;SDS011;8478;49.208;8.806;2023-05-10T04:45:17;5.80;;;5.50;;
2049;SDS011;8478;49.208;8.806;2023-05-10T04:47:43;5.47;;;5.17;;
2049;SDS011;8478;49.208;8.806;2023-05-10T04:50:09;5.73;;;5.43;;
2049;SDS011;8478;49.208;8.806;2023-05-10T04:52:34;4.93;;;4.73;;
2049;SDS011;8478;49.208;8.806;2023-05-10T04:55:01;6.40;;;6.10;;
2049;SDS011;8478;49.208;8.806;2023-05-10T04:57:27;6.97;;;6.57;;
2049;SDS011;8478;49.208;8.806;2023-05-10T04:59:52;6.07;;;5.77;;
2049;SDS011;8478;49.208;8.806;2023-05-10T05:02:18;5.73;;;5.43;;
2049;SDS011;8478;49.208;8.806;2023-05-10T05:04:43;6.50;;;6.17;;
2049;SDS011;8478;49.208;8.806;2023-05-10T05:07:09;5.97;;;5.57;;
2049;SDS011;8478;49.208;8.806;2023-05-10T05:09:35;5.87;;;5.57;;
2049;SDS011;8478;49.208;8.806;2023-05-10T05:12:01;6.30;;;5.90;;
2049;SDS011;8478;49.208;8.806;2023-05-10T05:14:26;6.50;;;6.20;;
2049;SDS011;8478;49.208;8.806;2023-05-10T05:16:52;6.30;;;6.00;;
2049;SDS011;8478;49.208;8.806;2023-05-10T05:19:18;6.60;;;6.30;;
2049;SDS011;8478;49.208;8.806;2023-05-10T05:21:44;6.90;;;6.50;;
2049;SDS011;8478;49.208;8.806;2023-05-10T05:24:09;6.33;;;6.03;;
2049;SDS011;8478;49.208;8.806;2023-05-10T05:26:37;6.20;;;5.90;;
2049;SDS011;8478;49.208;8.806;2023-05-10T05:29:03;6.37;;;6.00;;
2049;SDS011;8478;49.208;8.806;2023-05-10T05:31:28;6.20;;;5.90;;
2049;SDS011;8478;49.208;8.806;2023-05-10T05:33:54;6.53;;;6.23;;
2049;SDS011;8478;49.208;8.806;2023-05-10T05:36:20;6.23;;;5.93;;
2049;SDS011;8478;49.208;8.806;2023-05-10T05:38:46;6.47;;;6.20;;
2049;SDS011;8478;49.208;8.806;2023-05-10T05:41:12;6.87;;;6.57;;
2049;SDS011;8478;49.208;8.806;2023-05-10T05:43:37;6.87;;;6.50;;
2049;SDS011;8478;49.208;8.806;2023-05-10T05:46:03;7.00;;;6.60;;
2049;SDS011;8478;49.208;8.806;2023-05-10T05:48:29;5.80;;;5.50;;
2049;SDS011;8478;49.208;8.806;2023-05-10T05:50:55;6.47;;;6.17;;
2049;SDS011;8478;49.208;8.806;2023-05-10T05:53:22;6.10;;;5.80;;
2049;SDS011;8478;49.208;8.806;2023-05-10T05:55:54;6.00;;;5.70;;
2049;SDS011;8478;49.208;8.806;2023-05-10T05:58:22;7.00;;;6.60;;
2049;SDS011;8478;49.208;8.806;2023-05-10T06:00:48;6.90;;;6.47;;
2049;SDS011;8478;49.208;8.806;2023-05-10T06:03:14;7.40;;;7.10;;
2049;SDS011;8478;49.208;8.806;2023-05-10T06:05:39;7.47;;;7.07;;
2049;SDS011;8478;49.208;8.806;2023-05-10T06:08:05;6.33;;;6.03;;
2049;SDS011;8478;49.208;8.806;2023-05-10T06:10:31;6.13;;;5.83;;
2049;SDS011;8478;49.208;8.806;2023-05-10T06:12:56;6.33;;;6.03;;
2049;SDS011;8478;49.208;8.806;2023-05-10T06:15:22;6.63;;;6.33;;
2049;SDS011;8478;49.208;8.806;2023-05-10T06:17:48;6.37;;;6.00;;
2049;SDS011;8478;49.208;8.806;2023-05-10T06:20:16;5.90;;;5.57;;
2049;SDS011;8478;49.208;8.806;2023-05-10T06:22:42;5.87;;;5.67;;
2049;SDS011;8478;49.208;8.806;2023-05-10T06:25:08;6.47;;;6.17;;
2049;SDS011;8478;49.208;8.806;2023-05-10T06:27:34;6.97;;;6.67;;
2049;SDS011;8478;49.208;8.806;2023-05-10T06:30:00;6.23;;;5.87;;
2049;SDS011;8478;49.208;8.806;2023-05-10T06:32:26;5.50;;;5.10;;
2049;SDS011;8478;49.208;8.806;2023-05-10T06:34:51;5.97;;;5.67;;
2049;SDS011;8478;49.208;8.806;2023-05-10T06:37:17;6.03;;;5.73;;
2049;SDS011;8478;49.208;8.806;2023-05-10T06:39:43;6.47;;;6.07;;
2049;SDS011;8478;49.208;8.806;2023-05-10T06:42:08;5.87;;;5.57;;
2049;SDS011;8478;49.208;8.806;2023-05-10T06:44:34;6.23;;;5.93;;
2049;SDS011;8478;49.208;8.806;2023-05-10T06:47:00;6.00;;;5.70;;
2049;SDS011;8478;49.208;8.806;2023-05-10T06:49:25;6.70;;;6.30;;
2049;SDS011;8478;49.208;8.806;2023-05-10T06:51:51;6.50;;;6.20;;
2049;SDS011;8478;49.208;8.806;2023-05-10T06:54:17;6.50;;;6.20;;
2049;SDS011;8478;49.208;8.806;2023-05-10T06:56:43;6.63;;;6.10;;
2049;SDS011;8478;49.208;8.806;2023-05-10T06:59:08;6.23;;;5.93;;
2049;SDS011;8478;49.208;8.806;2023-05-10T07:01:34;5.77;;;5.50;;
2049;SDS011;8478;49.208;8.806;2023-05-10T07:04:00;7.20;;;6.80;;
2049;SDS011;8478;49.208;8.806;2023-05-10T07:06:25;6.63;;;6.23;;
2049;SDS011;8478;49.208;8.806;2023-05-10T07:08:52;6.30;;;5.90;;
2049;SDS011;8478;49.208;8.806;2023-05-10T07:11:18;6.40;;;6.10;;
2049;SDS011;8478;49.208;8.806;2023-05-10T07:13:43;5.60;;;5.30;;
2049;SDS011;8478;49.208;8.806;2023-05-10T07:16:11;5.70;;;5.40;;
2049;SDS011;8478;49.208;8.806;2023-05-10T07:18:37;5.23;;;4.93;;
2049;SDS011;8478;49.208;8.806;2023-05-10T07:21:02;5.67;;;5.37;;
2049;SDS011;8478;49.208;8.806;2023-05-10T07:23:28;5.33;;;5.03;;
2049;SDS011;8478;49.208;8.806;2023-05-10T07:25:54;5.53;;;5.33;;
2049;SDS011;8478;49.208;8.806;2023-05-10T07:28:22;5.53;;;5.23;;
2049;SDS011;8478;49.208;8.806;2023-05-10T07:30:49;5.80;;;5.50;;
2049;SDS011;8478;49.208;8.806;2023-05-10T07:33:14;5.33;;;5.03;;
2049;SDS011;8478;49.208;8.806;2023-05-10T07:35:41;5.30;;;5.00;;
2049;SDS011;8478;49.208;8.806;2023-05-10T07:38:07;5.43;;;5.13;;
2049;SDS011;8478;49.208;8.806;2023-05-10T07:40:32;5.30;;;5.00;;
2049;SDS011;8478;49.208;8.806;2023-05-10T07:42:58;5.50;;;5.20;;
2049;SDS011;8478;49.208;8.806;2023-05-10T07:45:26;5.27;;;4.93;;
2049;SDS011;8478;49.208;8.806;2023-05-10T07:47:51;5.10;;;4.90;;
2049;SDS011;8478;49.208;8.806;2023-05-10T07:50:17;4.47;;;4.27;;
2049;SDS011;8478;49.208;8.806;2023-05-10T07:52:43;4.40;;;4.20;;
2049;SDS011;8478;49.208;8.806;2023-05-10T07:55:09;4.87;;;4.57;;
2049;SDS011;8478;49.208;8.806;2023-05-10T07:57:34;4.60;;;4.40;;
2049;SDS011;8478;49.208;8.806;2023-05-10T08:00:00;4.50;;;4.23;;
2049;SDS011;8478;49.208;8.806;2023-05-10T08:02:26;4.47;;;4.27;;
2049;SDS011;8478;49.208;8.806;2023-05-10T08:04:52;4.60;;;4.40;;
2049;SDS011;8478;49.208;8.806;2023-05-10T08:07:17;5.17;;;4.80;;
2049;SDS011;8478;49.208;8.806;2023-05-10T08:09:43;5.10;;;4.80;;
2049;SDS011;8478;49.208;8.806;2023-05-10T08:12:09;5.10;;;4.80;;
2049;SDS011;8478;49.208;8.806;2023-05-10T08:14:35;4.73;;;4.53;;
2049;SDS011;8478;49.208;8.806;2023-05-10T08:17:01;5.80;;;5.20;;
2049;SDS011;8478;49.208;8.806;2023-05-10T08:19:28;4.90;;;4.60;;
2049;SDS011;8478;49.208;8.806;2023-05-10T08:21:54;4.70;;;4.50;;
2049;SDS011;8478;49.208;8.806;2023-05-10T08:24:20;4.70;;;4.50;;
2049;SDS011;8478;49.208;8.806;2023-05-10T08:26:47;4.73;;;4.47;;
2049;SDS011;8478;49.208;8.806;2023-05-10T08:29:13;5.20;;;4.80;;
2049;SDS011;8478;49.208;8.806;2023-05-10T08:31:39;4.97;;;4.70;;
2049;SDS011;8478;49.208;8.806;2023-05-10T08:34:04;4.50;;;4.30;;
2049;SDS011;8478;49.208;8.806;2023-05-10T08:36:30;4.87;;;4.57;;
2049;SDS011;8478;49.208;8.806;2023-05-10T08:38:57;4.90;;;4.70;;
2049;SDS011;8478;49.208;8.806;2023-05-10T08:41:23;4.53;;;4.33;;
2049;SDS011;8478;49.208;8.806;2023-05-10T08:43:51;4.40;;;4.20;;
2049;SDS011;8478;49.208;8.806;2023-05-10T08:46:18;4.40;;;4.20;;
2049;SDS011;8478;49.208;8.806;2023-05-10T08:48:45;4.53;;;4.33;;
2049;SDS011;8478;49.208;8.806;2023-05-10T08:51:35;4.73;;;4.53;;
2049;SDS011;8478;49.208;8.806;2023-05-10T08:54:03;4.03;;;3.83;;
2049;SDS011;8478;49.208;8.806;2023-05-10T08:56:29;3.90;;;3.70;;
2049;SDS011;8478;49.208;8.806;2023-05-10T08:58:55;4.87;;;4.57;;
2049;SDS011;8478;49.208;8.806;2023-05-10T09:01:22;4.90;;;4.60;;
2049;SDS011;8478;49.208;8.806;2023-05-10T09:03:48;4.40;;;4.20;;
2049;SDS011;8478;49.208;8.806;2023-05-10T09:06:14;4.53;;;4.33;;
2049;SDS011;8478;49.208;8.806;2023-05-10T09:08:41;4.30;;;4.10;;
2049;SDS011;8478;49.208;8.806;2023-05-10T09:11:08;4.50;;;4.30;;
2049;SDS011;8478;49.208;8.806;2023-05-10T09:13:35;4.50;;;4.30;;
2049;SDS011;8478;49.208;8.806;2023-05-10T09:16:02;4.53;;;4.33;;
2049;SDS011;8478;49.208;8.806;2023-05-10T09:18:28;4.90;;;4.60;;
2049;SDS011;8478;49.208;8.806;2023-05-10T09:20:54;4.80;;;4.60;;
2049;SDS011;8478;49.208;8.806;2023-05-10T09:23:20;4.90;;;4.70;;
2049;SDS011;8478;49.208;8.806;2023-05-10T09:25:45;4.23;;;4.03;;
2049;SDS011;8478;49.208;8.806;2023-05-10T09:28:11;4.63;;;4.40;;
2049;SDS011;8478;49.208;8.806;2023-05-10T09:30:37;4.30;;;4.10;;
2049;SDS011;8478;49.208;8.806;2023-05-10T09:33:04;4.40;;;4.10;;
2049;SDS011;8478;49.208;8.806;2023-05-10T09:35:31;4.30;;;4.10;;
2049;SDS011;8478;49.208;8.806;2023-05-10T09:37:58;4.00;;;3.80;;
2049;SDS011;8478;49.208;8.806;2023-05-10T09:40:26;4.23;;;4.03;;
2049;SDS011;8478;49.208;8.806;2023-05-10T09:42:57;4.87;;;4.67;;
2049;SDS011;8478;49.208;8.806;2023-05-10T09:45:24;3.73;;;3.53;;
2049;SDS011;8478;49.208;8.806;2023-05-10T09:47:50;4.70;;;4.50;;
2049;SDS011;8478;49.208;8.806;2023-05-10T09:50:18;4.20;;;3.90;;
2049;SDS011;8478;49.208;8.806;2023-05-10T09:52:49;4.33;;;4.13;;
2049;SDS011;8478;49.208;8.806;2023-05-10T09:55:17;4.47;;;4.17;;
2049;SDS011;8478;49.208;8.806;2023-05-10T09:57:45;3.70;;;3.60;;
2049;SDS011;8478;49.208;8.806;2023-05-10T10:00:16;4.13;;;3.93;;
2049;SDS011;8478;49.208;8.806;2023-05-10T10:02:46;4.70;;;4.50;;
2049;SDS011;8478;49.208;8.806;2023-05-10T10:05:13;4.30;;;4.10;;
2049;SDS011;8478;49.208;8.806;2023-05-10T10:07:39;4.60;;;4.30;;
2049;SDS011;8478;49.208;8.806;2023-05-10T10:10:05;4.57;;;4.37;;
2049;SDS011;8478;49.208;8.806;2023-05-10T10:12:36;4.60;;;4.30;;
2049;SDS011;8478;49.208;8.806;2023-05-10T10:15:02;4.20;;;4.00;;
2049;SDS011;8478;49.208;8.806;2023-05-10T10:17:29;4.80;;;4.60;;
2049;SDS011;8478;49.208;8.806;2023-05-10T10:19:57;5.07;;;4.80;;
2049;SDS011;8478;49.208;8.806;2023-05-10T10:22:23;4.40;;;4.20;;
2049;SDS011;8478;49.208;8.806;2023-05-10T10:24:49;5.00;;;4.60;;
2049;SDS011;8478;49.208;8.806;2023-05-10T10:27:20;4.57;;;4.30;;
2049;SDS011;8478;49.208;8.806;2023-05-10T10:32:42;5.10;;;4.80;;
2049;SDS011;8478;49.208;8.806;2023-05-10T10:35:27;4.87;;;4.63;;
2049;SDS011;8478;49.208;8.806;2023-05-10T10:37:56;4.40;;;4.20;;
2049;SDS011;8478;49.208;8.806;2023-05-10T10:40:23;4.53;;;4.23;;
2049;SDS011;8478;49.208;8.806;2023-05-10T10:42:52;4.00;;;3.80;;
2049;SDS011;8478;49.208;8.806;2023-05-10T10:45:18;4.50;;;4.30;;
2049;SDS011;8478;49.208;8.806;2023-05-10T10:47:45;4.50;;;4.30;;
2049;SDS011;8478;49.208;8.806;2023-05-10T10:50:11;4.10;;;3.90;;
2049;SDS011;8478;49.208;8.806;2023-05-10T10:52:38;4.20;;;4.00;;
2049;SDS011;8478;49.208;8.806;2023-05-10T10:55:05;4.00;;;3.80;;
2049;SDS011;8478;49.208;8.806;2023-05-10T10:57:32;4.30;;;4.10;;
2049;SDS011;8478;49.208;8.806;2023-05-10T11:02:50;4.30;;;4.00;;
2049;SDS011;8478;49.208;8.806;2023-05-10T11:10:37;4.13;;;3.93;;
2049;SDS011;8478;49.208;8.806;2023-05-10T11:13:04;4.40;;;4.20;;
2049;SDS011;8478;49.208;8.806;2023-05-10T11:15:31;4.73;;;4.40;;
2049;SDS011;8478;49.208;8.806;2023-05-10T11:17:59;4.53;;;4.20;;
2049;SDS011;8478;49.208;8.806;2023-05-10T11:20:28;3.97;;;3.70;;
2049;SDS011;8478;49.208;8.806;2023-05-10T11:23:10;3.93;;;3.73;;
2049;SDS011;8478;49.208;8.806;2023-05-10T11:25:49;4.40;;;4.10;;
2049;SDS011;8478;49.208;8.806;2023-05-10T11:28:17;4.80;;;4.50;;
2049;SDS011;8478;49.208;8.806;2023-05-10T11:30:44;4.73;;;4.53;;
2049;SDS011;8478;49.208;8.806;2023-05-10T11:33:14;4.50;;;4.30;;
2049;SDS011;8478;49.208;8.806;2023-05-10T11:35:42;4.10;;;3.90;;
2049;SDS011;8478;49.208;8.806;2023-05-10T11:38:08;4.30;;;4.10;;
2049;SDS011;8478;49.208;8.806;2023-05-10T11:40:38;4.53;;;4.23;;
2049;SDS011;8478;49.208;8.806;2023-05-10T11:43:04;4.40;;;4.20;;
2049;SDS011;8478;49.208;8.806;2023-05-10T11:45:33;4.27;;;4.07;;
2049;SDS011;8478;49.208;8.806;2023-05-10T11:48:00;4.47;;;4.17;;
2049;SDS011;8478;49.208;8.806;2023-05-10T11:50:26;4.63;;;4.43;;
2049;SDS011;8478;49.208;8.806;2023-05-10T11:52:53;4.50;;;4.30;;
2049;SDS011;8478;49.208;8.806;2023-05-10T11:55:20;4.20;;;4.00;;
2049;SDS011;8478;49.208;8.806;2023-05-10T11:57:47;4.50;;;4.20;;
2049;SDS011;8478;49.208;8.806;2023-05-10T12:00:16;3.87;;;3.67;;
2049;SDS011;8478;49.208;8.806;2023-05-10T12:02:41;4.30;;;4.07;;
2049;SDS011;8478;49.208;8.806;2023-05-10T12:05:08;4.80;;;4.50;;
2049;SDS011;8478;49.208;8.806;2023-05-10T12:07:34;4.60;;;4.40;;
2049;SDS011;8478;49.208;8.806;2023-05-10T12:12:36;4.13;;;3.93;;
2049;SDS011;8478;49.208;8.806;2023-05-10T12:15:03;4.70;;;4.33;;
2049;SDS011;8478;49.208;8.806;2023-05-10T12:17:31;4.40;;;4.20;;
2049;SDS011;8478;49.208;8.806;2023-05-10T12:20:18;3.63;;;3.53;;
2049;SDS011;8478;49.208;8.806;2023-05-10T12:22:52;3.80;;;3.60;;
2049;SDS011;8478;49.208;8.806;2023-05-10T12:25:19;4.43;;;4.20;;
2049;SDS011;8478;49.208;8.806;2023-05-10T12:27:56;4.33;;;3.93;;
2049;SDS011;8478;49.208;8.806;2023-05-10T12:30:26;4.30;;;4.10;;
2049;SDS011;8478;49.208;8.806;2023-05-10T12:32:52;4.70;;;4.50;;
2049;SDS011;8478;49.208;8.806;2023-05-10T12:35:19;4.70;;;4.40;;
2049;SDS011;8478;49.208;8.806;2023-05-10T12:37:50;4.80;;;4.40;;
2049;SDS011;8478;49.208;8.806;2023-05-10T12:40:16;4.30;;;4.10;;
2049;SDS011;8478;49.208;8.806;2023-05-10T12:42:42;4.83;;;4.40;;
2049;SDS011;8478;49.208;8.806;2023-05-10T12:45:09;4.03;;;3.83;;
2049;SDS011;8478;49.208;8.806;2023-05-10T12:47:36;4.87;;;4.57;;
2049;SDS011;8478;49.208;8.806;2023-05-10T12:50:02;4.67;;;4.37;;
2049;SDS011;8478;49.208;8.806;2023-05-10T12:52:29;5.00;;;4.70;;
2049;SDS011;8478;49.208;8.806;2023-05-10T12:54:57;4.17;;;3.87;;
2049;SDS011;8478;49.208;8.806;2023-05-10T12:57:23;3.97;;;3.77;;
2049;SDS011;8478;49.208;8.806;2023-05-10T12:59:49;4.60;;;4.30;;
2049;SDS011;8478;49.208;8.806;2023-05-10T13:02:15;4.13;;;3.93;;
2049;SDS011;8478;49.208;8.806;2023-05-10T13:04:43;4.77;;;4.47;;
2049;SDS011;8478;49.208;8.806;2023-05-10T13:07:09;4.63;;;4.33;;
2049;SDS011;8478;49.208;8.806;2023-05-10T13:09:35;5.00;;;4.70;;
2049;SDS011;8478;49.208;8.806;2023-05-10T13:12:01;5.43;;;4.60;;
2049;SDS011;8478;49.208;8.806;2023-05-10T13:14:27;5.20;;;4.70;;
2049;SDS011;8478;49.208;8.806;2023-05-10T13:16:53;4.60;;;4.30;;
2049;SDS011;8478;49.208;8.806;2023-05-10T13:19:19;5.07;;;4.77;;
2049;SDS011;8478;49.208;8.806;2023-05-10T13:21:45;4.60;;;4.30;;
2049;SDS011;8478;49.208;8.806;2023-05-10T13:24:11;5.00;;;4.67;;
2049;SDS011;8478;49.208;8.806;2023-05-10T13:26:39;4.60;;;4.30;;
2049;SDS011;8478;49.208;8.806;2023-05-10T13:29:05;4.47;;;4.23;;
2049;SDS011;8478;49.208;8.806;2023-05-10T13:31:31;4.70;;;4.40;;
2049;SDS011;8478;49.208;8.806;2023-05-10T13:33:57;6.60;;;5.30;;
2049;SDS011;8478;49.208;8.806;2023-05-10T13:36:23;7.13;;;4.50;;
2049;SDS011;8478;49.208;8.806;2023-05-10T13:38:48;4.67;;;4.37;;
2049;SDS011;8478;49.208;8.806;2023-05-10T13:41:14;4.63;;;4.33;;
2049;SDS011;8478;49.208;8.806;2023-05-10T13:43:40;5.17;;;4.67;;
2049;SDS011;8478;49.208;8.806;2023-05-10T13:46:05;4.83;;;4.47;;
2049;SDS011;8478;49.208;8.806;2023-05-10T13:48:31;5.20;;;4.90;;
2049;SDS011;8478;49.208;8.806;2023-05-10T13:50:57;5.00;;;4.70;;
2049;SDS011;8478;49.208;8.806;2023-05-10T13:53:22;5.17;;;4.87;;
2049;SDS011;8478;49.208;8.806;2023-05-10T13:55:48;5.20;;;4.90;;
2049;SDS011;8478;49.208;8.806;2023-05-10T13:58:14;4.47;;;4.27;;
2049;SDS011;8478;49.208;8.806;2023-05-10T14:00:40;5.23;;;4.87;;
2049;SDS011;8478;49.208;8.806;2023-05-10T14:03:05;5.07;;;4.77;;
2049;SDS011;8478;49.208;8.806;2023-05-10T14:05:31;5.37;;;4.90;;
2049;SDS011;8478;49.208;8.806;2023-05-10T14:07:57;5.00;;;4.70;;
2049;SDS011;8478;49.208;8.806;2023-05-10T14:10:23;5.23;;;4.93;;
2049;SDS011;8478;49.208;8.806;2023-05-10T14:12:49;4.70;;;4.40;;
2049;SDS011;8478;49.208;8.806;2023-05-10T14:15:15;4.30;;;4.10;;
2049;SDS011;8478;49.208;8.806;2023-05-10T14:17:41;5.20;;;4.70;;
2049;SDS011;8478;49.208;8.806;2023-05-10T14:20:07;4.83;;;4.60;;
2049;SDS011;8478;49.208;8.806;2023-05-10T14:22:33;5.73;;;5.23;;
2049;SDS011;8478;49.208;8.806;2023-05-10T14:24:59;5.20;;;4.90;;
2049;SDS011;8478;49.208;8.806;2023-05-10T14:27:25;4.53;;;4.33;;
2049;SDS011;8478;49.208;8.806;2023-05-10T14:29:51;5.00;;;4.70;;
2049;SDS011;8478;49.208;8.806;2023-05-10T14:32:18;4.70;;;4.40;;
2049;SDS011;8478;49.208;8.806;2023-05-10T14:34:43;4.83;;;4.57;;
2049;SDS011;8478;49.208;8.806;2023-05-10T14:37:10;4.87;;;4.57;;
2049;SDS011;8478;49.208;8.806;2023-05-10T14:39:36;4.70;;;4.40;;
2049;SDS011;8478;49.208;8.806;2023-05-10T14:42:02;4.60;;;4.40;;
2049;SDS011;8478;49.208;8.806;2023-05-10T14:44:28;4.90;;;4.50;;
2049;SDS011;8478;49.208;8.806;2023-05-10T14:46:54;5.10;;;4.80;;
2049;SDS011;8478;49.208;8.806;2023-05-10T14:49:21;5.23;;;5.00;;
2049;SDS011;8478;49.208;8.806;2023-05-10T14:51:47;4.50;;;4.30;;
2049;SDS011;8478;49.208;8.806;2023-05-10T14:54:13;5.13;;;4.83;;
2049;SDS011;8478;49.208;8.806;2023-05-10T14:56:39;4.60;;;4.40;;
2049;SDS011;8478;49.208;8.806;2023-05-10T14:59:06;4.63;;;4.33;;
2049;SDS011;8478;49.208;8.806;2023-05-10T15:01:32;4.57;;;4.17;;
2049;SDS011;8478;49.208;8.806;2023-05-10T15:04:02;4.80;;;4.50;;
2049;SDS011;8478;49.208;8.806;2023-05-10T15:06:31;4.27;;;4.07;;
2049;SDS011;8478;49.208;8.806;2023-05-10T15:08:57;4.50;;;4.20;;
2049;SDS011;8478;49.208;8.806;2023-05-10T15:11:23;4.37;;;4.07;;
2049;SDS011;8478;49.208;8.806;2023-05-10T15:13:49;4.53;;;4.23;;
2049;SDS011;8478;49.208;8.806;2023-05-10T15:16:14;4.50;;;4.23;;
2049;SDS011;8478;49.208;8.806;2023-05-10T15:18:40;4.40;;;4.10;;
2049;SDS011;8478;49.208;8.806;2023-05-10T15:21:06;4.90;;;4.07;;
2049;SDS011;8478;49.208;8.806;2023-05-10T15:23:31;4.47;;;4.17;;
2049;SDS011;8478;49.208;8.806;2023-05-10T15:25:57;4.67;;;4.37;;
2049;SDS011;8478;49.208;8.806;2023-05-10T15:28:22;4.60;;;4.20;;
2049;SDS011;8478;49.208;8.806;2023-05-10T15:30:48;4.00;;;3.80;;
2049;SDS011;8478;49.208;8.806;2023-05-10T15:33:14;4.10;;;3.90;;
2049;SDS011;8478;49.208;8.806;2023-05-10T15:35:40;4.10;;;3.90;;
2049;SDS011;8478;49.208;8.806;2023-05-10T15:38:06;3.80;;;3.60;;
2049;SDS011;8478;49.208;8.806;2023-05-10T15:40:32;3.70;;;3.43;;
2049;SDS011;8478;49.208;8.806;2023-05-10T15:42:57;5.13;;;4.00;;
2049;SDS011;8478;49.208;8.806;2023-05-10T15:45:23;4.20;;;3.90;;